Oval Lp No.11 — JL6306 — position and weather

sailwx.info

Track history (hours):
 
Tides and Currents Weather Stations Pressure Air Temp Water Temp Dewpoint Dewpoint Depression Visibility Wind Speed Wind Dir Waves Ship Positions

Oval Lp No.11

Last reported at 2015-Jul-01 01:33 UTC. Time now 2015-Jul-01 01:52 UTC.
Position N 35°34' E 140°05'.

Length 67 m; draft 3.6 m.

Type: Ship (hazmat cat A). MMSI: 431500366.

Date/timePositionNaut miles runAvg speedWind from/ knotsBaromVisibWave heightAir tempDewpointWater temp
2015-Jul-01 01:33N 35°34' E 140°05'9 9.5
2015-Jul-01 00:33N 35°30' E 139°55'1110.7
2015-Jun-30 23:33N 35°22' E 139°45'10 9.7
2015-Jun-30 22:33N 35°12' E 139°47'1110.9
2015-Jun-30 21:33N 35°03' E 139°40'  
2015-Jun-28 07:29N 34°01' E 134°60'1111.5
2015-Jun-28 06:34N 34°12' E 134°58'1311.2
2015-Jun-28 05:23N 34°24' E 135°03'1012.1
2015-Jun-28 04:34N 34°30' E 135°13'1110.8
2015-Jun-28 03:33N 34°36' E 135°24'2 1.6
2015-Jun-28 02:24N 34°35' E 135°26'0 0.0
2015-Jun-28 01:24N 34°35' E 135°26'0 0.0
2015-Jun-28 00:30N 34°35' E 135°26'0 0.0
2015-Jun-27 22:34N 34°35' E 135°26'4 4.0
2015-Jun-27 21:33N 34°35' E 135°21'1111.5
2015-Jun-27 20:33N 34°27' E 135°11'1212.2
2015-Jun-27 19:33N 34°18' E 135°00'1211.5
2015-Jun-27 18:33N 34°07' E 135°00'  
2015-Jun-22 19:32N 35°31' E 139°50'0 0.0
2015-Jun-22 18:32N 35°31' E 139°50'0 0.1
2015-Jun-22 17:32N 35°31' E 139°50'0 0.0
2015-Jun-22 16:32N 35°31' E 139°50'0 0.0
2015-Jun-22 15:32N 35°31' E 139°50'0 0.0
2015-Jun-22 14:32N 35°31' E 139°50'0 0.0
2015-Jun-22 13:32N 35°31' E 139°50'0 0.0
2015-Jun-22 12:29N 35°31' E 139°50'0 0.0
2015-Jun-22 11:32N 35°31' E 139°50'0 0.0
2015-Jun-22 10:32N 35°31' E 139°50'0 0.0
2015-Jun-22 09:32N 35°31' E 139°50'0 0.0
2015-Jun-22 08:32N 35°31' E 139°50'0 0.0
2015-Jun-22 07:32N 35°31' E 139°50'0 0.0
2015-Jun-22 06:32N 35°31' E 139°50'0 0.1
2015-Jun-22 05:32N 35°31' E 139°50'0 0.1
2015-Jun-22 04:32N 35°30' E 139°50'9 9.4
2015-Jun-22 03:33N 35°33' E 140°01'3 2.6
2015-Jun-22 02:22N 35°33' E 140°05'0 0.0
2015-Jun-22 01:31N 35°33' E 140°05'0 0.0
2015-Jun-22 00:10N 35°33' E 140°05'0 0.2
2015-Jun-21 23:32N 35°33' E 140°05'1 0.6
2015-Jun-21 22:22N 35°33' E 140°05'0 0.0
2015-Jun-21 21:28N 35°33' E 140°05'0 0.0
2015-Jun-21 20:28N 35°33' E 140°05'0 0.0
2015-Jun-21 19:28N 35°33' E 140°05'0 0.0
2015-Jun-21 18:04N 35°33' E 140°05'0 0.0
2015-Jun-21 17:22N 35°33' E 140°05'0 0.0
2015-Jun-21 16:28N 35°33' E 140°05'0 0.0
2015-Jun-21 15:28N 35°33' E 140°05'0 0.0
2015-Jun-21 14:28N 35°33' E 140°05'0 0.0
2015-Jun-21 13:22N 35°33' E 140°05'0 0.0
2015-Jun-21 12:22N 35°33' E 140°05'0 0.0
2015-Jun-21 09:28N 35°33' E 140°05'0 0.0
2015-Jun-21 07:04N 35°33' E 140°05'0 0.1
2015-Jun-21 06:16N 35°33' E 140°05'0 0.0
2015-Jun-21 05:10N 35°33' E 140°05'0 0.0
2015-Jun-21 04:28N 35°33' E 140°05'0 0.0
2015-Jun-21 03:16N 35°33' E 140°05'0 0.0
2015-Jun-21 02:28N 35°33' E 140°05'  
Track history (hours):
 
Tides and Currents Weather Stations Pressure Air Temp Water Temp Dewpoint Dewpoint Depression Visibility Wind Speed Wind Dir Waves Ship Positions

Oval Lp No.11

Last reported at 2015-Jul-01 01:33 UTC. Time now 2015-Jul-01 01:52 UTC.
Position N 35°34' E 140°05'.

Length 67 m; draft 3.6 m.

Type: Ship (hazmat cat A). MMSI: 431500366.

Date/timePositionNaut miles runAvg speedWind from/ knotsBaromVisibWave heightAir tempDewpointWater temp
2015-Jul-01 01:33N 35°34' E 140°05'9 9.5
2015-Jul-01 00:33N 35°30' E 139°55'1110.7
2015-Jun-30 23:33N 35°22' E 139°45'10 9.7
2015-Jun-30 22:33N 35°12' E 139°47'1110.9
2015-Jun-30 21:33N 35°03' E 139°40'  
2015-Jun-28 07:29N 34°01' E 134°60'1111.5
2015-Jun-28 06:34N 34°12' E 134°58'1311.2
2015-Jun-28 05:23N 34°24' E 135°03'1012.1
2015-Jun-28 04:34N 34°30' E 135°13'1110.8
2015-Jun-28 03:33N 34°36' E 135°24'2 1.6
2015-Jun-28 02:24N 34°35' E 135°26'0 0.0
2015-Jun-28 01:24N 34°35' E 135°26'0 0.0
2015-Jun-28 00:30N 34°35' E 135°26'0 0.0
2015-Jun-27 22:34N 34°35' E 135°26'4 4.0
2015-Jun-27 21:33N 34°35' E 135°21'1111.5
2015-Jun-27 20:33N 34°27' E 135°11'1212.2
2015-Jun-27 19:33N 34°18' E 135°00'1211.5
2015-Jun-27 18:33N 34°07' E 135°00'  
2015-Jun-22 19:32N 35°31' E 139°50'0 0.0
2015-Jun-22 18:32N 35°31' E 139°50'0 0.1
2015-Jun-22 17:32N 35°31' E 139°50'0 0.0
2015-Jun-22 16:32N 35°31' E 139°50'0 0.0
2015-Jun-22 15:32N 35°31' E 139°50'0 0.0
2015-Jun-22 14:32N 35°31' E 139°50'0 0.0
2015-Jun-22 13:32N 35°31' E 139°50'0 0.0
2015-Jun-22 12:29N 35°31' E 139°50'0 0.0
2015-Jun-22 11:32N 35°31' E 139°50'0 0.0
2015-Jun-22 10:32N 35°31' E 139°50'0 0.0
2015-Jun-22 09:32N 35°31' E 139°50'0 0.0
2015-Jun-22 08:32N 35°31' E 139°50'0 0.0
2015-Jun-22 07:32N 35°31' E 139°50'0 0.0
2015-Jun-22 06:32N 35°31' E 139°50'0 0.1
2015-Jun-22 05:32N 35°31' E 139°50'0 0.1
2015-Jun-22 04:32N 35°30' E 139°50'9 9.4
2015-Jun-22 03:33N 35°33' E 140°01'3 2.6
2015-Jun-22 02:22N 35°33' E 140°05'0 0.0
2015-Jun-22 01:31N 35°33' E 140°05'0 0.0
2015-Jun-22 00:10N 35°33' E 140°05'0 0.2
2015-Jun-21 23:32N 35°33' E 140°05'1 0.6
2015-Jun-21 22:22N 35°33' E 140°05'0 0.0
2015-Jun-21 21:28N 35°33' E 140°05'0 0.0
2015-Jun-21 20:28N 35°33' E 140°05'0 0.0
2015-Jun-21 19:28N 35°33' E 140°05'0 0.0
2015-Jun-21 18:04N 35°33' E 140°05'0 0.0
2015-Jun-21 17:22N 35°33' E 140°05'0 0.0
2015-Jun-21 16:28N 35°33' E 140°05'0 0.0
2015-Jun-21 15:28N 35°33' E 140°05'0 0.0
2015-Jun-21 14:28N 35°33' E 140°05'0 0.0
2015-Jun-21 13:22N 35°33' E 140°05'0 0.0
2015-Jun-21 12:22N 35°33' E 140°05'0 0.0
2015-Jun-21 09:28N 35°33' E 140°05'0 0.0
2015-Jun-21 07:04N 35°33' E 140°05'0 0.1
2015-Jun-21 06:16N 35°33' E 140°05'0 0.0
2015-Jun-21 05:10N 35°33' E 140°05'0 0.0
2015-Jun-21 04:28N 35°33' E 140°05'0 0.0
2015-Jun-21 03:16N 35°33' E 140°05'0 0.0
2015-Jun-21 02:28N 35°33' E 140°05'  

Dump ship's entire track history